createdAt,value
2023-09-06T00:00:40.853Z,13.75
2023-09-06T00:01:40.820Z,13.77
2023-09-06T00:02:40.757Z,13.77
2023-09-06T00:03:40.897Z,13.77
2023-09-06T00:04:40.909Z,13.77
2023-09-06T00:05:40.757Z,13.75
2023-09-06T00:06:40.743Z,13.75
2023-09-06T00:07:40.727Z,13.75
2023-09-06T00:08:40.691Z,13.75
2023-09-06T00:09:40.828Z,13.73
2023-09-06T00:10:40.696Z,13.71
2023-09-06T00:11:40.681Z,13.69
2023-09-06T00:12:40.747Z,13.66
2023-09-06T00:13:40.679Z,13.66
2023-09-06T00:14:40.657Z,13.62
2023-09-06T00:15:40.873Z,13.57
2023-09-06T00:16:40.677Z,13.55
2023-09-06T00:17:40.700Z,13.54
2023-09-06T00:18:40.705Z,13.52
2023-09-06T00:19:40.681Z,13.51
2023-09-06T00:20:40.568Z,13.48
2023-09-06T00:21:40.615Z,13.46
2023-09-06T00:22:40.545Z,13.42
2023-09-06T00:23:40.551Z,13.42
2023-09-06T00:24:40.634Z,13.38
2023-09-06T00:25:40.556Z,13.36
2023-09-06T00:26:40.512Z,13.36
2023-09-06T00:27:40.526Z,13.33
2023-09-06T00:28:40.500Z,13.32
2023-09-06T00:29:40.517Z,13.32
2023-09-06T00:30:40.547Z,13.32
2023-09-06T00:31:40.531Z,13.32
2023-09-06T00:32:40.504Z,13.32
2023-09-06T00:33:40.489Z,13.32
2023-09-06T00:34:40.445Z,13.30
2023-09-06T00:35:40.431Z,13.30
2023-09-06T00:36:40.449Z,13.29
2023-09-06T00:37:40.433Z,13.28
2023-09-06T00:38:40.378Z,13.28
2023-09-06T00:39:40.416Z,13.28
2023-09-06T00:40:40.363Z,13.25
2023-09-06T00:41:40.411Z,13.25
2023-09-06T00:42:40.398Z,13.22
2023-09-06T00:43:40.332Z,13.22
2023-09-06T00:44:40.311Z,13.20
2023-09-06T00:45:40.405Z,13.20
2023-09-06T00:46:40.339Z,13.19
2023-09-06T00:47:40.325Z,13.14
2023-09-06T00:48:40.274Z,13.12
2023-09-06T00:49:40.321Z,13.11
2023-09-06T00:50:40.248Z,13.08
2023-09-06T00:51:40.357Z,13.07
2023-09-06T00:52:40.258Z,13.03
2023-09-06T00:53:40.251Z,13.00
2023-09-06T00:54:40.264Z,12.97
2023-09-06T00:55:40.200Z,12.96
2023-09-06T00:56:40.178Z,12.93
2023-09-06T00:57:40.191Z,12.90
2023-09-06T00:58:40.216Z,12.87
2023-09-06T00:59:40.193Z,12.87
2023-09-06T01:00:40.225Z,12.86
2023-09-06T01:01:40.307Z,12.85
2023-09-06T01:02:40.159Z,12.85
2023-09-06T01:03:40.203Z,12.83
2023-09-06T01:04:40.139Z,12.85
2023-09-06T01:05:40.116Z,12.85
2023-09-06T01:06:40.180Z,12.87
2023-09-06T01:07:40.057Z,12.89
2023-09-06T01:08:40.091Z,12.87
2023-09-06T01:09:40.084Z,12.85
2023-09-06T01:10:40.078Z,12.85
2023-09-06T01:11:40.031Z,12.85
2023-09-06T01:12:40.062Z,12.85
2023-09-06T01:13:39.996Z,12.83
2023-09-06T01:14:39.998Z,12.85
2023-09-06T01:15:40.025Z,12.86
2023-09-06T01:16:40.180Z,12.86
2023-09-06T01:17:40.057Z,12.86
2023-09-06T01:18:40.029Z,12.85
2023-09-06T01:19:39.936Z,12.83
2023-09-06T01:20:39.977Z,12.82
2023-09-06T01:21:39.953Z,12.79
2023-09-06T01:22:39.955Z,12.79
2023-09-06T01:23:39.931Z,12.78
2023-09-06T01:24:39.910Z,12.77
2023-09-06T01:25:39.918Z,12.78
2023-09-06T01:26:39.878Z,12.75
2023-09-06T01:27:39.877Z,12.74
2023-09-06T01:28:39.856Z,12.72
2023-09-06T01:29:39.840Z,12.68
2023-09-06T01:30:39.980Z,12.65
2023-09-06T01:31:39.894Z,12.64
2023-09-06T01:32:39.881Z,12.67
2023-09-06T01:33:39.804Z,12.64
2023-09-06T01:34:39.802Z,12.62
2023-09-06T01:35:39.768Z,12.62
2023-09-06T01:36:39.809Z,12.62
2023-09-06T01:37:39.756Z,12.60
2023-09-06T01:38:39.769Z,12.60
2023-09-06T01:39:39.773Z,12.59
2023-09-06T01:40:39.739Z,12.60
2023-09-06T01:41:39.709Z,12.57
2023-09-06T01:42:39.707Z,12.57
2023-09-06T01:43:39.748Z,12.59
2023-09-06T01:44:39.707Z,12.57
2023-09-06T01:45:39.761Z,12.59
2023-09-06T01:46:39.707Z,12.59
2023-09-06T01:47:39.683Z,12.57
2023-09-06T01:48:39.645Z,12.57
2023-09-06T01:49:39.648Z,12.59
2023-09-06T01:50:39.669Z,12.59
2023-09-06T01:51:39.647Z,12.59
2023-09-06T01:52:39.586Z,12.59
2023-09-06T01:53:39.592Z,12.57
2023-09-06T01:54:39.606Z,12.56
2023-09-06T01:55:39.576Z,12.56
2023-09-06T01:56:39.549Z,12.53
2023-09-06T01:57:39.620Z,12.53
2023-09-06T01:58:39.531Z,12.52
2023-09-06T01:59:39.578Z,12.52
2023-09-06T02:00:39.596Z,12.49
2023-09-06T02:01:39.606Z,12.47
2023-09-06T02:02:39.498Z,12.46
2023-09-06T02:03:39.790Z,12.45
2023-09-06T02:04:39.510Z,12.42
2023-09-06T02:05:39.482Z,12.42
2023-09-06T02:06:39.543Z,12.41
2023-09-06T02:07:39.462Z,12.39
2023-09-06T02:08:39.403Z,12.38
2023-09-06T02:09:39.526Z,12.35
2023-09-06T02:10:39.423Z,12.34
2023-09-06T02:11:39.387Z,12.31
2023-09-06T02:12:39.387Z,12.28
2023-09-06T02:13:39.388Z,12.27
2023-09-06T02:14:39.366Z,12.24
2023-09-06T02:15:39.426Z,12.24
2023-09-06T02:16:39.394Z,12.21
2023-09-06T02:17:39.407Z,12.21
2023-09-06T02:18:39.375Z,12.19
2023-09-06T02:19:39.307Z,12.16
2023-09-06T02:20:39.295Z,12.14
2023-09-06T02:21:39.372Z,12.12
2023-09-06T02:22:39.258Z,12.12
2023-09-06T02:23:39.262Z,12.12
2023-09-06T02:24:39.255Z,12.12
2023-09-06T02:25:39.259Z,12.10
2023-09-06T02:26:39.257Z,12.10
2023-09-06T02:27:39.230Z,12.04
2023-09-06T02:28:39.264Z,12.02
2023-09-06T02:29:39.255Z,11.99
2023-09-06T02:30:39.494Z,11.96
2023-09-06T02:31:39.460Z,11.94
2023-09-06T02:32:39.264Z,11.91
2023-09-06T02:33:39.244Z,11.90
2023-09-06T02:34:39.179Z,11.90
2023-09-06T02:35:39.229Z,11.88
2023-09-06T02:36:39.534Z,11.88
2023-09-06T02:37:39.241Z,11.86
2023-09-06T02:38:39.173Z,11.88
2023-09-06T02:39:39.205Z,11.86
2023-09-06T02:40:39.202Z,11.86
2023-09-06T02:41:39.554Z,11.85
2023-09-06T02:42:39.203Z,11.85
2023-09-06T02:43:39.182Z,11.83
2023-09-06T02:44:40.022Z,11.85
2023-09-06T02:45:39.268Z,11.85
2023-09-06T02:46:39.614Z,11.85
2023-09-06T02:47:39.587Z,11.85
2023-09-06T02:48:39.185Z,11.85
2023-09-06T02:49:39.575Z,11.86
2023-09-06T02:50:39.123Z,11.83
2023-09-06T02:51:39.233Z,11.83
2023-09-06T02:52:39.102Z,11.83
2023-09-06T02:53:39.113Z,11.79
2023-09-06T02:54:39.170Z,11.76
2023-09-06T02:55:39.080Z,11.76
2023-09-06T02:56:39.065Z,11.76
2023-09-06T02:57:39.125Z,11.76
2023-09-06T02:58:39.144Z,11.76
2023-09-06T02:59:39.444Z,11.76
2023-09-06T03:00:39.114Z,11.76
2023-09-06T03:01:39.176Z,11.76
2023-09-06T03:02:39.128Z,11.73
2023-09-06T03:03:39.187Z,11.72
2023-09-06T03:04:38.881Z,11.70
2023-09-06T03:05:38.811Z,11.67
2023-09-06T03:06:38.820Z,11.64
2023-09-06T03:07:38.820Z,11.61
2023-09-06T03:08:38.794Z,11.58
2023-09-06T03:09:38.785Z,11.55
2023-09-06T03:10:38.749Z,11.52
2023-09-06T03:11:38.848Z,11.47
2023-09-06T03:12:38.755Z,11.44
2023-09-06T03:13:38.760Z,11.43
2023-09-06T03:14:38.702Z,11.42
2023-09-06T03:15:38.800Z,11.37
2023-09-06T03:16:38.744Z,11.36
2023-09-06T03:17:38.729Z,11.35
2023-09-06T03:18:38.663Z,11.37
2023-09-06T03:19:38.713Z,11.37
2023-09-06T03:20:38.631Z,11.36
2023-09-06T03:21:38.666Z,11.36
2023-09-06T03:22:38.613Z,11.36
2023-09-06T03:23:38.677Z,11.36
2023-09-06T03:24:38.602Z,11.40
2023-09-06T03:25:38.648Z,11.42
2023-09-06T03:26:38.579Z,11.42
2023-09-06T03:27:38.606Z,11.40
2023-09-06T03:28:38.648Z,11.40
2023-09-06T03:29:38.545Z,11.42
2023-09-06T03:30:38.568Z,11.42
2023-09-06T03:31:38.618Z,11.43
2023-09-06T03:32:38.570Z,11.40
2023-09-06T03:33:38.523Z,11.40
2023-09-06T03:34:38.485Z,11.42
2023-09-06T03:35:38.510Z,11.40
2023-09-06T03:36:38.466Z,11.40
2023-09-06T03:37:38.499Z,11.40
2023-09-06T03:38:38.432Z,11.39
2023-09-06T03:39:38.507Z,11.40
2023-09-06T03:40:38.515Z,11.37
2023-09-06T03:41:38.467Z,11.39
2023-09-06T03:42:38.394Z,11.36
2023-09-06T03:43:38.785Z,11.37
2023-09-06T03:44:38.387Z,11.35
2023-09-06T03:45:38.392Z,11.32
2023-09-06T03:46:38.553Z,11.28
2023-09-06T03:47:38.485Z,11.28
2023-09-06T03:48:38.570Z,11.27
2023-09-06T03:49:38.375Z,11.25
2023-09-06T03:50:38.308Z,11.25
2023-09-06T03:51:38.323Z,11.24
2023-09-06T03:52:38.366Z,11.22
2023-09-06T03:53:38.846Z,11.19
2023-09-06T03:54:38.280Z,11.17
2023-09-06T03:55:38.341Z,11.15
2023-09-06T03:56:38.261Z,11.11
2023-09-06T03:57:38.268Z,11.10
2023-09-06T03:58:38.224Z,11.06
2023-09-06T03:59:38.242Z,11.06
2023-09-06T04:00:38.232Z,11.02
2023-09-06T04:01:38.368Z,11.00
2023-09-06T04:02:38.354Z,10.99
2023-09-06T04:03:38.243Z,10.97
2023-09-06T04:04:38.215Z,10.94
2023-09-06T04:05:38.184Z,10.92
2023-09-06T04:06:38.137Z,10.91
2023-09-06T04:07:38.222Z,10.89
2023-09-06T04:08:38.263Z,10.86
2023-09-06T04:09:38.106Z,10.84
2023-09-06T04:10:38.104Z,10.81
2023-09-06T04:11:38.059Z,10.76
2023-09-06T04:12:38.070Z,10.71
2023-09-06T04:13:38.103Z,10.70
2023-09-06T04:14:38.232Z,10.67
2023-09-06T04:15:38.072Z,10.64
2023-09-06T04:16:38.058Z,10.66
2023-09-06T04:17:38.102Z,10.64
2023-09-06T04:18:38.083Z,10.64
2023-09-06T04:19:38.005Z,10.61
2023-09-06T04:20:37.967Z,10.56
2023-09-06T04:21:37.957Z,10.52
2023-09-06T04:22:37.931Z,10.52
2023-09-06T04:23:37.957Z,10.47
2023-09-06T04:24:37.912Z,10.45
2023-09-06T04:25:37.925Z,10.42
2023-09-06T04:26:37.885Z,10.40
2023-09-06T04:27:37.892Z,10.38
2023-09-06T04:28:37.861Z,10.36
2023-09-06T04:29:37.930Z,10.34
2023-09-06T04:30:37.942Z,10.32
2023-09-06T04:31:37.861Z,10.30
2023-09-06T04:32:37.854Z,10.29
2023-09-06T04:33:37.830Z,10.30
2023-09-06T04:34:37.792Z,10.32
2023-09-06T04:35:37.856Z,10.32
2023-09-06T04:36:37.766Z,10.33
2023-09-06T04:37:37.784Z,10.32
2023-09-06T04:38:37.855Z,10.33
2023-09-06T04:39:37.755Z,10.33
2023-09-06T04:40:37.733Z,10.32
2023-09-06T04:41:37.812Z,10.32
2023-09-06T04:42:37.722Z,10.30
2023-09-06T04:43:37.737Z,10.30
2023-09-06T04:44:37.692Z,10.30
2023-09-06T04:45:37.720Z,10.25
2023-09-06T04:46:37.763Z,10.20
2023-09-06T04:47:39.448Z,10.17
2023-09-06T04:48:37.721Z,10.14
2023-09-06T04:49:37.646Z,10.12
2023-09-06T04:50:37.638Z,10.11
2023-09-06T04:51:37.647Z,10.11
2023-09-06T04:52:37.605Z,10.11
2023-09-06T04:53:37.620Z,10.12
2023-09-06T04:54:37.622Z,10.11
2023-09-06T04:55:37.623Z,10.09
2023-09-06T04:56:37.603Z,10.09
2023-09-06T04:57:37.579Z,10.08
2023-09-06T04:58:37.542Z,10.08
2023-09-06T04:59:37.595Z,10.08
2023-09-06T05:00:37.605Z,10.08
2023-09-06T05:01:37.610Z,10.08
2023-09-06T05:02:37.581Z,10.09
2023-09-06T05:03:37.791Z,10.12
2023-09-06T05:04:37.511Z,10.14
2023-09-06T05:05:37.523Z,10.18
2023-09-06T05:06:37.474Z,10.20
2023-09-06T05:07:37.476Z,10.27
2023-09-06T05:08:37.481Z,10.27
2023-09-06T05:09:37.461Z,10.30
2023-09-06T05:10:37.407Z,10.29
2023-09-06T05:11:37.410Z,10.33
2023-09-06T05:12:37.386Z,10.36
2023-09-06T05:13:37.404Z,10.40
2023-09-06T05:14:37.387Z,10.41
2023-09-06T05:15:37.505Z,10.42
2023-09-06T05:16:37.351Z,10.41
2023-09-06T05:17:37.387Z,10.42
2023-09-06T05:18:37.379Z,10.44
2023-09-06T05:19:37.367Z,10.47
2023-09-06T05:20:37.298Z,10.48
2023-09-06T05:21:37.332Z,10.51
2023-09-06T05:22:37.385Z,10.52
2023-09-06T05:23:37.577Z,10.51
2023-09-06T05:24:37.266Z,10.52
2023-09-06T05:25:37.281Z,10.51
2023-09-06T05:26:37.330Z,10.52
2023-09-06T05:27:37.249Z,10.53
2023-09-06T05:28:37.276Z,10.53
2023-09-06T05:29:37.236Z,10.56
2023-09-06T05:30:37.202Z,10.59
2023-09-06T05:31:37.238Z,10.55
2023-09-06T05:32:37.211Z,10.53
2023-09-06T05:33:37.179Z,10.55
2023-09-06T05:34:37.205Z,10.55
2023-09-06T05:35:37.206Z,10.56
2023-09-06T05:36:37.134Z,10.56
2023-09-06T05:37:37.198Z,10.59
2023-09-06T05:38:37.103Z,10.59
2023-09-06T05:39:37.142Z,10.60
2023-09-06T05:40:37.098Z,10.60
2023-09-06T05:41:37.112Z,10.64
2023-09-06T05:42:37.070Z,10.64
2023-09-06T05:43:37.108Z,10.66
2023-09-06T05:44:37.049Z,10.68
2023-09-06T05:45:37.056Z,10.73
2023-09-06T05:46:37.073Z,10.79
2023-09-06T05:47:37.188Z,10.81
2023-09-06T05:48:37.034Z,10.82
2023-09-06T05:49:37.054Z,10.85
2023-09-06T05:50:36.996Z,10.86
2023-09-06T05:51:37.018Z,10.89
2023-09-06T05:52:36.961Z,10.91
2023-09-06T05:53:37.065Z,10.94
2023-09-06T05:54:36.948Z,10.94
2023-09-06T05:55:37.065Z,10.97
2023-09-06T05:56:37.060Z,10.99
2023-09-06T05:57:36.951Z,10.99
2023-09-06T05:58:37.185Z,11.00
2023-09-06T05:59:36.961Z,11.04
2023-09-06T06:00:37.428Z,11.06
2023-09-06T06:01:37.035Z,11.09
2023-09-06T06:02:37.025Z,11.11
2023-09-06T06:03:36.896Z,11.17
2023-09-06T06:04:36.904Z,11.21
2023-09-06T06:05:36.844Z,11.27
2023-09-06T06:06:36.861Z,11.42
2023-09-06T06:07:36.826Z,11.60
2023-09-06T06:08:36.908Z,11.83
2023-09-06T06:09:36.789Z,12.04
2023-09-06T06:10:36.845Z,12.24
2023-09-06T06:11:36.830Z,12.42
2023-09-06T06:12:36.826Z,12.65
2023-09-06T06:13:36.784Z,12.83
2023-09-06T06:14:36.802Z,13.05
2023-09-06T06:15:36.746Z,13.26
2023-09-06T06:16:36.839Z,13.48
2023-09-06T06:17:36.744Z,13.69
2023-09-06T06:18:36.736Z,13.89
2023-09-06T06:19:36.719Z,14.12
2023-09-06T06:20:44.106Z,14.35
2023-09-06T06:21:36.768Z,14.54
2023-09-06T06:22:36.673Z,14.77
2023-09-06T06:23:36.650Z,14.98
2023-09-06T06:24:36.697Z,15.20
2023-09-06T06:25:36.620Z,15.41
2023-09-06T06:26:36.631Z,15.65
2023-09-06T06:27:36.688Z,15.90
2023-09-06T06:28:36.806Z,16.11
2023-09-06T06:29:36.656Z,16.28
2023-09-06T06:30:36.596Z,16.46
2023-09-06T06:31:36.596Z,16.67
2023-09-06T06:32:36.707Z,16.86
2023-09-06T06:33:36.561Z,17.03
2023-09-06T06:34:36.595Z,17.16
2023-09-06T06:35:37.548Z,17.30
2023-09-06T06:36:36.539Z,17.48
2023-09-06T06:37:36.535Z,17.63
2023-09-06T06:38:36.502Z,17.75
2023-09-06T06:39:36.452Z,17.92
2023-09-06T06:40:36.493Z,18.05
2023-09-06T06:41:36.467Z,18.23
2023-09-06T06:42:36.432Z,18.39
2023-09-06T06:43:36.410Z,18.57
2023-09-06T06:44:36.464Z,18.75
2023-09-06T06:45:36.607Z,18.84
2023-09-06T06:46:36.427Z,19.02
2023-09-06T06:47:36.428Z,19.11
2023-09-06T06:48:36.588Z,19.18
2023-09-06T06:49:36.361Z,19.31
2023-09-06T06:50:36.377Z,19.41
2023-09-06T06:51:38.100Z,19.48
2023-09-06T06:52:36.355Z,19.58
2023-09-06T06:53:36.331Z,19.62
2023-09-06T06:54:36.324Z,19.65
2023-09-06T06:55:36.398Z,19.74
2023-09-06T06:56:36.289Z,19.81
2023-09-06T06:57:36.288Z,19.84
2023-09-06T06:58:36.287Z,19.92
2023-09-06T06:59:36.244Z,19.96
2023-09-06T07:00:36.262Z,20.08
2023-09-06T07:01:36.279Z,20.13
2023-09-06T07:02:36.361Z,20.17
2023-09-06T07:03:36.288Z,20.26
2023-09-06T07:04:36.268Z,20.36
2023-09-06T07:05:36.275Z,20.41
2023-09-06T07:06:36.214Z,20.55
2023-09-06T07:07:36.163Z,20.57
2023-09-06T07:08:36.165Z,20.69
2023-09-06T07:09:36.125Z,20.77
2023-09-06T07:10:36.156Z,20.76
2023-09-06T07:11:36.109Z,20.88
2023-09-06T07:12:36.128Z,21.01
2023-09-06T07:13:36.105Z,21.17
2023-09-06T07:14:36.157Z,21.27
2023-09-06T07:15:36.119Z,21.28
2023-09-06T07:16:36.155Z,21.32
2023-09-06T07:17:36.112Z,21.40
2023-09-06T07:18:36.181Z,21.50
2023-09-06T07:19:36.034Z,21.59
2023-09-06T07:20:36.037Z,21.61
2023-09-06T07:21:36.671Z,21.54
2023-09-06T07:22:36.018Z,21.56
2023-09-06T07:23:36.064Z,21.72
2023-09-06T07:24:36.006Z,21.82
2023-09-06T07:25:35.981Z,22.00
2023-09-06T07:26:35.989Z,22.18
2023-09-06T07:27:35.938Z,22.37
2023-09-06T07:28:35.966Z,22.39
2023-09-06T07:29:35.978Z,22.57
2023-09-06T07:30:36.165Z,22.65
2023-09-06T07:31:35.970Z,22.70
2023-09-06T07:32:35.945Z,22.61
2023-09-06T07:33:35.890Z,22.64
2023-09-06T07:34:35.892Z,22.65
2023-09-06T07:35:35.864Z,22.68
2023-09-06T07:36:35.889Z,22.62
2023-09-06T07:37:35.826Z,22.62
2023-09-06T07:38:35.936Z,22.67
2023-09-06T07:39:35.819Z,22.76
2023-09-06T07:40:35.816Z,22.80
2023-09-06T07:41:35.850Z,22.91
2023-09-06T07:42:35.809Z,23.09
2023-09-06T07:43:35.764Z,23.17
2023-09-06T07:44:35.805Z,23.36
2023-09-06T07:45:35.802Z,23.39
2023-09-06T07:46:35.799Z,23.43
2023-09-06T07:47:35.942Z,23.53
2023-09-06T07:48:36.360Z,23.70
2023-09-06T07:49:35.733Z,23.94
2023-09-06T07:50:35.739Z,24.10
2023-09-06T07:51:35.697Z,24.25
2023-09-06T07:52:35.688Z,24.39
2023-09-06T07:53:35.717Z,24.53
2023-09-06T07:54:35.703Z,24.47
2023-09-06T07:55:35.640Z,24.47
2023-09-06T07:56:35.730Z,24.47
2023-09-06T07:57:35.643Z,24.47
2023-09-06T07:58:36.157Z,24.40
2023-09-06T07:59:35.717Z,24.40
2023-09-06T08:00:35.602Z,24.37
2023-09-06T08:01:35.628Z,24.30
2023-09-06T08:02:35.627Z,24.27
2023-09-06T08:03:35.571Z,24.27
2023-09-06T08:04:35.654Z,24.35
2023-09-06T08:05:35.567Z,24.45
2023-09-06T08:06:35.767Z,24.64
2023-09-06T08:07:35.521Z,24.84
2023-09-06T08:08:35.527Z,24.90
2023-09-06T08:09:35.630Z,24.90
2023-09-06T08:10:35.536Z,24.95
2023-09-06T08:11:35.496Z,24.96
2023-09-06T08:12:35.483Z,24.99
2023-09-06T08:13:35.461Z,25.00
2023-09-06T08:14:35.539Z,25.08
2023-09-06T08:15:35.441Z,25.17
2023-09-06T08:16:35.490Z,25.27
2023-09-06T08:17:35.435Z,25.27
2023-09-06T08:18:35.904Z,25.35
2023-09-06T08:19:35.385Z,25.43
2023-09-06T08:20:35.399Z,25.45
2023-09-06T08:21:35.384Z,25.51
2023-09-06T08:22:44.403Z,25.60
2023-09-06T08:23:35.431Z,25.60
2023-09-06T08:24:35.387Z,25.70
2023-09-06T08:25:35.352Z,25.77
2023-09-06T08:26:35.363Z,25.88
2023-09-06T08:27:35.344Z,25.97
2023-09-06T08:28:35.355Z,26.09
2023-09-06T08:29:35.353Z,26.13
2023-09-06T08:30:35.393Z,26.25
2023-09-06T08:31:35.387Z,26.36
2023-09-06T08:32:35.423Z,26.50
2023-09-06T08:33:35.610Z,26.57
2023-09-06T08:34:35.334Z,26.76
2023-09-06T08:35:35.328Z,26.89
2023-09-06T08:36:35.396Z,26.87
2023-09-06T08:37:35.303Z,26.89
2023-09-06T08:38:35.547Z,26.92
2023-09-06T08:39:35.352Z,26.92
2023-09-06T08:40:35.331Z,27.18
2023-09-06T08:41:35.315Z,27.41
2023-09-06T08:42:35.328Z,27.60
2023-09-06T08:43:35.320Z,27.72
2023-09-06T08:44:35.332Z,27.82
2023-09-06T08:45:35.341Z,27.92
2023-09-06T08:46:35.388Z,27.92
2023-09-06T08:47:35.443Z,27.87
2023-09-06T08:48:35.482Z,27.92
2023-09-06T08:49:35.325Z,27.96
2023-09-06T08:50:35.314Z,28.02
2023-09-06T08:51:35.351Z,28.18
2023-09-06T08:52:35.297Z,28.30
2023-09-06T08:53:35.292Z,28.25
2023-09-06T08:54:35.337Z,28.29
2023-09-06T08:55:35.300Z,28.27
2023-09-06T08:56:35.283Z,28.27
2023-09-06T08:57:35.072Z,28.33
2023-09-06T08:58:35.288Z,28.31
2023-09-06T08:59:34.996Z,28.37
2023-09-06T09:00:35.027Z,28.44
2023-09-06T09:01:35.127Z,28.59
2023-09-06T09:02:35.025Z,28.77
2023-09-06T09:03:35.493Z,28.88
2023-09-06T09:04:35.043Z,29.05
2023-09-06T09:05:34.967Z,29.27
2023-09-06T09:06:34.977Z,29.28
2023-09-06T09:07:34.911Z,29.31
2023-09-06T09:08:34.953Z,29.33
2023-09-06T09:09:34.919Z,29.33
2023-09-06T09:10:34.920Z,29.42
2023-09-06T09:11:34.876Z,29.58
2023-09-06T09:12:34.967Z,29.67
2023-09-06T09:13:34.870Z,29.74
2023-09-06T09:14:34.891Z,29.86
2023-09-06T09:15:35.162Z,30.00
2023-09-06T09:16:34.956Z,30.08
2023-09-06T09:17:42.805Z,30.10
2023-09-06T09:18:34.928Z,30.13
2023-09-06T09:19:34.806Z,30.05
2023-09-06T09:20:34.796Z,30.01
2023-09-06T09:21:34.768Z,30.17
2023-09-06T09:22:34.815Z,30.32
2023-09-06T09:23:34.757Z,30.47
2023-09-06T09:24:35.605Z,30.64
2023-09-06T09:25:34.746Z,30.83
2023-09-06T09:26:34.754Z,30.95
2023-09-06T09:27:34.739Z,31.12
2023-09-06T09:28:34.746Z,31.28
2023-09-06T09:29:34.705Z,31.44
2023-09-06T09:30:34.774Z,31.61
2023-09-06T09:31:34.699Z,31.65
2023-09-06T09:32:34.775Z,31.68
2023-09-06T09:33:34.794Z,31.73
2023-09-06T09:34:34.745Z,31.76
2023-09-06T09:35:34.685Z,31.66
2023-09-06T09:36:34.672Z,31.63
2023-09-06T09:37:36.843Z,31.57
2023-09-06T09:38:34.652Z,31.62
2023-09-06T09:39:34.685Z,31.62
2023-09-06T09:41:37.906Z,31.66
2023-09-06T09:42:34.618Z,31.34
2023-09-06T09:43:36.039Z,31.04
2023-09-06T09:44:34.559Z,30.83
2023-09-06T09:45:34.623Z,30.88
2023-09-06T09:46:34.568Z,30.94
2023-09-06T09:47:47.971Z,31.06
2023-09-06T09:48:34.584Z,30.98
2023-09-06T09:49:34.530Z,30.98
2023-09-06T09:50:34.542Z,31.29
2023-09-06T09:51:34.589Z,31.53
2023-09-06T09:52:34.507Z,31.61
2023-09-06T09:53:34.596Z,31.62
2023-09-06T09:54:34.500Z,31.51
2023-09-06T09:55:34.437Z,31.65
2023-09-06T09:56:34.468Z,31.85
2023-09-06T09:57:34.433Z,32.10
2023-09-06T09:58:34.447Z,32.30
2023-09-06T09:59:34.438Z,32.60
2023-09-06T10:00:34.454Z,32.79
2023-09-06T10:01:34.417Z,32.92
2023-09-06T10:02:40.675Z,32.99
2023-09-06T10:03:34.784Z,32.97
2023-09-06T10:04:34.624Z,33.00
2023-09-06T10:05:34.338Z,33.11
2023-09-06T10:06:34.456Z,33.06
2023-09-06T10:07:48.321Z,32.93
2023-09-06T10:08:34.350Z,32.87
2023-09-06T10:09:34.334Z,32.88
2023-09-06T10:10:34.329Z,33.06
2023-09-06T10:11:34.292Z,33.16
2023-09-06T10:12:34.357Z,33.28
2023-09-06T10:13:34.306Z,33.39
2023-09-06T10:14:34.286Z,33.37
2023-09-06T10:15:34.340Z,33.26
2023-09-06T10:16:34.275Z,33.32
2023-09-06T10:17:34.451Z,33.38
2023-09-06T10:18:34.450Z,33.51
2023-09-06T10:19:48.406Z,33.53
2023-09-06T10:20:34.212Z,33.56
2023-09-06T10:21:34.298Z,33.63
2023-09-06T10:22:34.215Z,33.81
2023-09-06T10:23:34.201Z,34.09
2023-09-06T10:24:34.230Z,34.21
2023-09-06T10:25:34.195Z,34.30
2023-09-06T10:26:34.151Z,34.24
2023-09-06T10:27:34.222Z,34.25
2023-09-06T10:28:34.139Z,34.30
2023-09-06T10:29:34.175Z,34.22
2023-09-06T10:30:34.144Z,34.17
2023-09-06T10:31:34.163Z,34.19
2023-09-06T10:32:34.162Z,34.17
2023-09-06T10:33:34.206Z,34.16
2023-09-06T10:34:34.087Z,34.24
2023-09-06T10:35:34.140Z,34.42
2023-09-06T10:36:35.796Z,34.59
2023-09-06T10:37:34.122Z,34.80
2023-09-06T10:38:34.090Z,34.89
2023-09-06T10:39:34.080Z,34.96
2023-09-06T10:40:34.060Z,34.99
2023-09-06T10:41:34.058Z,35.07
2023-09-06T10:42:34.017Z,35.06
2023-09-06T10:43:35.960Z,35.09
2023-09-06T10:44:34.032Z,35.10
2023-09-06T10:45:34.099Z,35.15
2023-09-06T10:46:34.094Z,35.15
2023-09-06T10:47:34.008Z,35.00
2023-09-06T10:48:33.960Z,35.09
2023-09-06T10:49:36.271Z,35.38
2023-09-06T10:50:33.946Z,35.53
2023-09-06T10:51:33.959Z,35.68
2023-09-06T10:52:33.943Z,35.78
2023-09-06T10:53:33.955Z,35.72
2023-09-06T10:54:33.937Z,35.71
2023-09-06T10:55:33.984Z,35.62
2023-09-06T10:56:33.882Z,35.62
2023-09-06T10:57:33.897Z,35.74
2023-09-06T10:58:33.864Z,35.75
2023-09-06T10:59:33.888Z,35.96
2023-09-06T11:00:33.883Z,35.92
2023-09-06T11:01:46.775Z,35.90
2023-09-06T11:02:33.974Z,35.96
2023-09-06T11:03:33.902Z,35.93
2023-09-06T11:04:33.925Z,35.99
2023-09-06T11:05:33.894Z,35.96
2023-09-06T11:06:33.815Z,36.07
2023-09-06T11:07:46.868Z,36.22
2023-09-06T11:08:34.104Z,36.38
2023-09-06T11:09:33.832Z,36.31
2023-09-06T11:10:33.785Z,36.41
2023-09-06T11:11:33.798Z,36.46
2023-09-06T11:12:33.785Z,36.47
2023-09-06T11:13:33.848Z,36.43
2023-09-06T11:14:33.758Z,36.28
2023-09-06T11:15:33.754Z,36.07
2023-09-06T11:16:33.754Z,35.99
2023-09-06T11:17:33.795Z,36.03
2023-09-06T11:18:34.182Z,36.25
2023-09-06T11:19:33.706Z,36.39
2023-09-06T11:20:33.668Z,36.49
2023-09-06T11:21:33.693Z,36.49
2023-09-06T11:22:33.705Z,36.43
2023-09-06T11:23:33.673Z,36.50
2023-09-06T11:24:33.665Z,36.53
2023-09-06T11:25:33.740Z,36.50
2023-09-06T11:26:33.640Z,36.43
2023-09-06T11:27:33.621Z,36.39
2023-09-06T11:28:33.852Z,36.38
2023-09-06T11:29:33.609Z,36.51
2023-09-06T11:30:33.703Z,36.60
2023-09-06T11:31:33.719Z,36.57
2023-09-06T11:32:33.618Z,36.76
2023-09-06T11:33:33.629Z,36.85
2023-09-06T11:34:33.548Z,36.85
2023-09-06T11:35:33.565Z,36.62
2023-09-06T11:36:33.585Z,36.51
2023-09-06T11:37:33.594Z,36.49
2023-09-06T11:38:33.519Z,36.57
2023-09-06T11:39:33.544Z,36.72
2023-09-06T11:40:33.658Z,36.76
2023-09-06T11:41:33.526Z,36.65
2023-09-06T11:42:33.522Z,36.60
2023-09-06T11:43:33.568Z,36.50
2023-09-06T11:44:33.560Z,36.59
2023-09-06T11:45:33.493Z,36.53
2023-09-06T11:46:33.579Z,36.66
2023-09-06T11:47:33.532Z,36.73
2023-09-06T11:48:33.425Z,36.64
2023-09-06T11:49:33.502Z,36.64
2023-09-06T11:50:33.434Z,36.71
2023-09-06T11:51:33.420Z,36.75
2023-09-06T11:52:44.167Z,36.72
2023-09-06T11:53:33.418Z,36.78
2023-09-06T11:54:33.408Z,36.60
2023-09-06T11:55:33.392Z,36.62
2023-09-06T11:56:33.371Z,36.72
2023-09-06T11:57:33.466Z,36.71
2023-09-06T11:58:33.341Z,36.66
2023-09-06T11:59:33.372Z,36.50
2023-09-06T12:00:33.407Z,36.38
2023-09-06T12:01:33.384Z,36.03
2023-09-06T12:02:33.333Z,35.97
2023-09-06T12:03:33.432Z,35.93
2023-09-06T12:04:33.288Z,35.99
2023-09-06T12:05:47.447Z,36.09
2023-09-06T12:06:33.414Z,36.17
2023-09-06T12:07:33.452Z,36.29
2023-09-06T12:08:32.551Z,36.41
2023-09-06T12:09:33.261Z,36.59
2023-09-06T12:10:33.267Z,36.59
2023-09-06T12:11:33.264Z,36.47
2023-09-06T12:12:33.245Z,36.31
2023-09-06T12:13:33.256Z,36.28
2023-09-06T12:14:33.231Z,36.37
2023-09-06T12:15:33.245Z,36.49
2023-09-06T12:16:33.192Z,36.50
2023-09-06T12:17:33.311Z,36.54
2023-09-06T12:18:33.556Z,36.59
2023-09-06T12:19:33.200Z,36.50
2023-09-06T12:20:33.239Z,36.35
2023-09-06T12:21:33.170Z,36.31
2023-09-06T12:22:33.148Z,36.34
2023-09-06T12:23:34.970Z,36.32
2023-09-06T12:24:33.132Z,36.31
2023-09-06T12:25:33.123Z,36.39
2023-09-06T12:26:33.139Z,36.57
2023-09-06T12:27:33.113Z,36.71
2023-09-06T12:28:33.678Z,36.65
2023-09-06T12:29:33.171Z,36.59
2023-09-06T12:30:33.061Z,36.56
2023-09-06T12:31:33.163Z,36.64
2023-09-06T12:32:33.142Z,36.39
2023-09-06T12:33:33.165Z,36.49
2023-09-06T12:34:33.069Z,36.39
2023-09-06T12:35:33.158Z,36.51
2023-09-06T12:36:33.012Z,36.65
2023-09-06T12:37:33.050Z,36.85
2023-09-06T12:38:33.009Z,37.06
2023-09-06T12:39:33.048Z,37.13
2023-09-06T12:40:33.064Z,36.88
2023-09-06T12:41:33.048Z,36.44
2023-09-06T12:42:33.016Z,36.27
2023-09-06T12:43:32.977Z,36.35
2023-09-06T12:44:32.985Z,36.46
2023-09-06T12:45:33.037Z,36.37
2023-09-06T12:46:33.028Z,36.46
2023-09-06T12:47:33.000Z,36.49
2023-09-06T12:48:33.310Z,36.65
2023-09-06T12:49:32.951Z,36.69
2023-09-06T12:50:32.969Z,36.71
2023-09-06T12:51:32.922Z,36.81
2023-09-06T12:52:32.897Z,36.85
2023-09-06T12:53:32.930Z,36.87